Time;durP1;ratioP1;P1;durP2;ratioP2;P2;SDS_P1;SDS_P2;PMS_P1;PMS_P2;Temp;Humidity;BMP_temperature;BMP_pressure;BME280_temperature;BME280_humidity;BME280_pressure;Samples;Min_cycle;Max_cycle;Signal;HPM_P1;HPM_P2
2022/10/04 00:00:00;;;;;;;0.10;0.10;;;;;;;;;;4958452;28;20130;-91
2022/10/04 00:02:30;;;;;;;0.15;0.15;;;;;;;;;;4942833;28;20050;-92
2022/10/04 00:05:02;;;;;;;0.10;0.10;;;;;;;;;;4942593;28;20069;-92
2022/10/04 00:07:30;;;;;;;0.10;0.10;;;;;;;;;;4943137;28;20047;-92
2022/10/04 00:09:59;;;;;;;0.10;0.10;;;;;;;;;;4942731;28;20118;-92
2022/10/04 00:12:25;;;;;;;0.10;0.10;;;;;;;;;;4942434;28;20047;-93
2022/10/04 00:14:52;;;;;;;0.10;0.10;;;;;;;;;;4958532;28;20608;-92
2022/10/04 00:17:20;;;;;;;0.10;0.10;;;;;;;;;;4942792;28;20030;-93
2022/10/04 00:19:49;;;;;;;0.10;0.10;;;;;;;;;;4943129;28;20043;-93
2022/10/04 00:22:19;;;;;;;0.10;0.10;;;;;;;;;;4942598;28;20046;-93
2022/10/04 00:25:04;;;;;;;0.20;0.20;;;;;;;;;;4942624;28;20042;-93
2022/10/04 00:27:30;;;;;;;0.10;0.10;;;;;;;;;;4974112;28;20051;-94
2022/10/04 00:30:02;;;;;;;1.55;0.30;;;;;;;;;;4942618;28;20042;-93
2022/10/04 00:32:40;;;;;;;0.20;0.20;;;;;;;;;;4958756;28;20046;-93
2022/10/04 00:35:25;;;;;;;0.13;0.13;;;;;;;;;;4958458;28;20074;-93
2022/10/04 00:38:08;;;;;;;0.10;0.10;;;;;;;;;;4958584;28;20359;-93
2022/10/04 00:40:54;;;;;;;0.20;0.20;;;;;;;;;;4957724;28;20049;-93
2022/10/04 00:43:20;;;;;;;0.10;0.10;;;;;;;;;;4958498;28;20061;-94
2022/10/04 00:45:53;;;;;;;0.10;0.10;;;;;;;;;;4958338;28;20406;-93
2022/10/04 00:48:22;;;;;;;0.10;0.10;;;;;;;;;;4958015;28;20560;-92
2022/10/04 00:50:50;;;;;;;0.10;0.10;;;;;;;;;;4957757;28;20135;-92
2022/10/04 00:53:25;;;;;;;0.10;0.10;;;;;;;;;;4942231;28;20042;-92
2022/10/04 00:55:52;;;;;;;0.10;0.10;;;;;;;;;;4958538;28;20039;-92
2022/10/04 00:58:20;;;;;;;0.10;0.10;;;;;;;;;;4957914;28;20069;-92
2022/10/04 01:00:46;;;;;;;0.10;0.10;;;;;;;;;;4957679;28;20049;-92
2022/10/04 01:03:14;;;;;;;0.10;0.10;;;;;;;;;;4941922;28;20093;-92
2022/10/04 01:05:41;;;;;;;0.10;0.10;;;;;;;;;;4941660;28;20491;-93
2022/10/04 01:08:12;;;;;;;0.10;0.10;;;;;;;;;;4941868;28;20100;-93
2022/10/04 01:10:38;;;;;;;0.10;0.10;;;;;;;;;;4941879;28;20053;-92
2022/10/04 01:13:07;;;;;;;0.10;0.10;;;;;;;;;;4957225;28;20050;-92
2022/10/04 01:15:51;;;;;;;0.10;0.10;;;;;;;;;;4941796;28;20066;-92
2022/10/04 01:18:20;;;;;;;0.10;0.10;;;;;;;;;;4957531;28;20047;-92
2022/10/04 01:21:06;;;;;;;0.10;0.10;;;;;;;;;;4957027;28;20125;-92
2022/10/04 01:23:43;;;;;;;0.20;0.20;;;;;;;;;;4941675;28;20359;-92
2022/10/04 01:26:29;;;;;;;0.10;0.10;;;;;;;;;;4941793;28;20113;-92
2022/10/04 01:28:58;;;;;;;0.10;0.10;;;;;;;;;;4958497;28;20117;-94
2022/10/04 01:31:25;;;;;;;0.10;0.10;;;;;;;;;;4941885;28;20074;-93
2022/10/04 01:33:51;;;;;;;0.10;0.10;;;;;;;;;;4941570;28;20046;-93
2022/10/04 01:36:18;;;;;;;0.10;0.10;;;;;;;;;;4940999;28;20073;-94
2022/10/04 01:38:45;;;;;;;0.10;0.10;;;;;;;;;;4941304;28;20050;-93
2022/10/04 01:41:13;;;;;;;0.10;0.10;;;;;;;;;;4941255;28;20434;-93
2022/10/04 01:43:39;;;;;;;0.10;0.10;;;;;;;;;;4941826;28;20038;-92
2022/10/04 01:46:12;;;;;;;0.10;0.10;;;;;;;;;;4941465;28;20458;-93
2022/10/04 01:48:38;;;;;;;0.38;0.38;;;;;;;;;;4941154;28;20343;-92
2022/10/04 01:51:08;;;;;;;0.10;0.10;;;;;;;;;;4941332;28;20631;-93
2022/10/04 01:53:35;;;;;;;0.10;0.10;;;;;;;;;;4940743;28;20070;-92
2022/10/04 01:56:07;;;;;;;0.10;0.10;;;;;;;;;;4940857;28;20133;-92
2022/10/04 01:58:38;;;;;;;0.10;0.10;;;;;;;;;;4941248;28;20367;-92
2022/10/04 02:01:15;;;;;;;0.10;0.10;;;;;;;;;;4940562;28;20050;-93
2022/10/04 02:03:46;;;;;;;0.10;0.10;;;;;;;;;;4944267;28;20080;-91
2022/10/04 02:06:12;;;;;;;0.10;0.10;;;;;;;;;;4941812;28;20633;-93
2022/10/04 02:08:39;;;;;;;0.10;0.10;;;;;;;;;;4940968;28;20043;-93
2022/10/04 02:11:05;;;;;;;0.10;0.10;;;;;;;;;;4940631;28;20398;-91
2022/10/04 02:13:38;;;;;;;0.10;0.10;;;;;;;;;;4940605;28;20047;-92
2022/10/04 02:16:09;;;;;;;0.10;0.10;;;;;;;;;;4940763;28;20054;-93
2022/10/04 02:18:45;;;;;;;0.10;0.10;;;;;;;;;;4941067;28;20402;-94
2022/10/04 02:21:14;;;;;;;0.10;0.10;;;;;;;;;;4973134;28;20074;-94
2022/10/04 02:23:40;;;;;;;0.10;0.10;;;;;;;;;;4940974;28;20101;-93
2022/10/04 02:26:06;;;;;;;0.10;0.10;;;;;;;;;;4940716;28;20042;-93
2022/10/04 02:28:33;;;;;;;0.10;0.10;;;;;;;;;;4940835;28;20045;-93
2022/10/04 02:33:44;;;;;;;0.10;0.10;;;;;;;;;;4958894;28;20050;-93
2022/10/04 02:36:10;;;;;;;0.10;0.10;;;;;;;;;;4940597;28;20102;-93
2022/10/04 02:38:38;;;;;;;0.10;0.10;;;;;;;;;;4940274;28;20050;-93
2022/10/04 02:41:23;;;;;;;0.10;0.10;;;;;;;;;;4940665;28;20054;-93
2022/10/04 02:43:56;;;;;;;0.10;0.10;;;;;;;;;;4956456;28;20129;-93
2022/10/04 02:46:33;;;;;;;0.10;0.10;;;;;;;;;;4956301;28;20130;-94
2022/10/04 02:49:00;;;;;;;0.10;0.10;;;;;;;;;;4940975;28;20133;-94
2022/10/04 02:51:35;;;;;;;0.10;0.10;;;;;;;;;;4956919;28;20054;-94
2022/10/04 02:54:01;;;;;;;0.10;0.10;;;;;;;;;;4960965;28;20402;-94
2022/10/04 02:56:29;;;;;;;0.10;0.10;;;;;;;;;;4959679;28;20042;-93
2022/10/04 02:58:55;;;;;;;0.10;0.10;;;;;;;;;;4944329;28;20043;-92
2022/10/04 03:01:25;;;;;;;0.10;0.10;;;;;;;;;;4944041;28;20126;-92
2022/10/04 03:03:54;;;;;;;0.10;0.10;;;;;;;;;;4944800;28;20078;-93
2022/10/04 03:06:20;;;;;;;0.10;0.10;;;;;;;;;;4943765;28;20039;-93
2022/10/04 03:08:47;;;;;;;0.10;0.10;;;;;;;;;;4951877;28;20042;-94
2022/10/04 03:11:14;;;;;;;0.10;0.10;;;;;;;;;;4944006;28;20479;-93
2022/10/04 03:13:41;;;;;;;0.10;0.10;;;;;;;;;;4944002;28;20043;-93
2022/10/04 03:16:07;;;;;;;0.10;0.10;;;;;;;;;;4943727;28;20066;-94
2022/10/04 03:18:33;;;;;;;0.10;0.10;;;;;;;;;;4943912;28;20034;-93
2022/10/04 03:21:01;;;;;;;0.10;0.10;;;;;;;;;;4943782;28;20125;-93
2022/10/04 03:23:27;;;;;;;0.10;0.10;;;;;;;;;;4959963;28;20143;-93
2022/10/04 03:25:57;;;;;;;0.10;0.10;;;;;;;;;;4943532;28;20078;-93
2022/10/04 03:28:23;;;;;;;0.10;0.10;;;;;;;;;;4944188;28;20086;-93
2022/10/04 03:30:50;;;;;;;0.10;0.10;;;;;;;;;;4943201;28;20462;-92
2022/10/04 03:33:19;;;;;;;0.10;0.10;;;;;;;;;;4943528;28;20077;-93
2022/10/04 03:35:46;;;;;;;0.10;0.10;;;;;;;;;;4943092;28;20078;-93
2022/10/04 03:38:12;;;;;;;0.10;0.10;;;;;;;;;;4943555;28;20046;-93
2022/10/04 03:40:39;;;;;;;0.10;0.10;;;;;;;;;;4959069;28;20041;-93
2022/10/04 03:43:05;;;;;;;0.10;0.10;;;;;;;;;;4943431;28;20089;-93
2022/10/04 03:45:31;;;;;;;0.20;0.20;;;;;;;;;;4959334;28;20081;-92
2022/10/04 03:47:58;;;;;;;0.10;0.10;;;;;;;;;;4943110;28;20289;-91
2022/10/04 03:50:25;;;;;;;0.10;0.10;;;;;;;;;;4943215;28;20074;-92
2022/10/04 03:52:54;;;;;;;0.10;0.10;;;;;;;;;;4942937;28;20038;-91
2022/10/04 03:55:20;;;;;;;0.10;0.10;;;;;;;;;;4958859;28;20039;-92
2022/10/04 03:57:47;;;;;;;0.10;0.10;;;;;;;;;;4942681;28;20109;-93
2022/10/04 04:00:18;;;;;;;0.10;0.10;;;;;;;;;;4943277;28;20050;-93
2022/10/04 04:02:45;;;;;;;0.10;0.10;;;;;;;;;;4943429;28;20109;-94
2022/10/04 04:05:18;;;;;;;0.10;0.10;;;;;;;;;;4942985;28;20093;-93
2022/10/04 04:07:44;;;;;;;0.10;0.10;;;;;;;;;;4958864;28;20038;-93
2022/10/04 04:10:23;;;;;;;0.10;0.10;;;;;;;;;;4958679;28;20384;-94
2022/10/04 04:12:56;;;;;;;0.10;0.10;;;;;;;;;;4957876;28;20047;-93
2022/10/04 04:15:22;;;;;;;0.10;0.10;;;;;;;;;;4943022;28;20520;-93
2022/10/04 04:17:51;;;;;;;0.10;0.10;;;;;;;;;;4942887;28;20434;-93
2022/10/04 04:20:21;;;;;;;0.30;0.30;;;;;;;;;;4958937;28;20094;-94
2022/10/04 04:22:54;;;;;;;0.10;0.10;;;;;;;;;;4942885;28;20045;-93
2022/10/04 04:25:22;;;;;;;0.10;0.10;;;;;;;;;;4943876;28;20074;-94
2022/10/04 04:27:49;;;;;;;0.10;0.10;;;;;;;;;;4943283;28;20042;-93
2022/10/04 04:30:15;;;;;;;0.10;0.10;;;;;;;;;;4943124;28;20046;-94
2022/10/04 04:32:41;;;;;;;0.10;0.10;;;;;;;;;;4942812;28;20046;-94
2022/10/04 04:35:21;;;;;;;0.10;0.10;;;;;;;;;;4942472;28;20102;-92
2022/10/04 04:37:54;;;;;;;0.10;0.10;;;;;;;;;;4942338;28;20180;-92
2022/10/04 04:40:21;;;;;;;0.10;0.10;;;;;;;;;;4942117;28;20105;-91
2022/10/04 04:42:47;;;;;;;0.10;0.10;;;;;;;;;;4941942;28;20042;-91
2022/10/04 04:45:14;;;;;;;0.10;0.10;;;;;;;;;;4941871;28;20140;-92
2022/10/04 04:47:43;;;;;;;0.20;0.20;;;;;;;;;;4941987;28;20053;-91
2022/10/04 04:50:14;;;;;;;0.10;0.10;;;;;;;;;;4942343;28;20039;-93
2022/10/04 04:52:40;;;;;;;0.10;0.10;;;;;;;;;;4958220;28;20077;-93
2022/10/04 04:55:06;;;;;;;0.10;0.10;;;;;;;;;;4941643;28;20050;-93
2022/10/04 04:57:32;;;;;;;0.10;0.10;;;;;;;;;;4957434;28;20086;-93
2022/10/04 04:59:59;;;;;;;0.10;0.10;;;;;;;;;;4941895;28;20435;-93
2022/10/04 05:02:33;;;;;;;0.10;0.10;;;;;;;;;;4941383;28;20078;-93
2022/10/04 05:05:11;;;;;;;0.10;0.10;;;;;;;;;;4942000;28;20039;-94
2022/10/04 05:07:37;;;;;;;0.10;0.10;;;;;;;;;;4958045;28;20379;-94
2022/10/04 05:10:18;;;;;;;0.10;0.10;;;;;;;;;;4941998;28;20063;-95
2022/10/04 05:12:45;;;;;;;0.10;0.10;;;;;;;;;;4941712;28;20521;-95
2022/10/04 05:15:13;;;;;;;0.10;0.10;;;;;;;;;;4941613;28;20043;-95
2022/10/04 05:17:42;;;;;;;0.20;0.20;;;;;;;;;;4941886;28;20074;-95
2022/10/04 05:20:10;;;;;;;0.10;0.10;;;;;;;;;;4944969;28;20046;-95
2022/10/04 05:22:36;;;;;;;0.10;0.10;;;;;;;;;;4953961;28;20481;-95
2022/10/04 05:25:02;;;;;;;0.10;0.10;;;;;;;;;;4941620;28;20081;-96
2022/10/04 05:27:35;;;;;;;0.10;0.10;;;;;;;;;;4958312;28;20046;-95
2022/10/04 05:30:15;;;;;;;0.10;0.10;;;;;;;;;;4941789;28;20046;-95
2022/10/04 05:32:53;;;;;;;0.10;0.10;;;;;;;;;;4942329;28;20074;-95
2022/10/04 05:35:20;;;;;;;0.22;0.20;;;;;;;;;;4941597;28;20055;-94
2022/10/04 05:37:49;;;;;;;0.10;0.10;;;;;;;;;;4941167;28;20050;-95
2022/10/04 05:40:22;;;;;;;0.20;0.20;;;;;;;;;;4957921;28;20043;-94
2022/10/04 05:42:48;;;;;;;;;;;;;;;;;;4941553;28;20058;-93
2022/10/04 05:45:30;;;;;;;0.10;0.10;;;;;;;;;;4961023;28;19918;-96
2022/10/04 05:47:58;;;;;;;0.50;0.50;;;;;;;;;;4957645;28;20478;-92
2022/10/04 05:50:42;;;;;;;0.10;0.10;;;;;;;;;;4942365;28;20031;-96
2022/10/04 05:53:34;;;;;;;0.10;0.10;;;;;;;;;;4974549;28;20042;-96
2022/10/04 05:56:16;;;;;;;0.17;0.17;;;;;;;;;;4972917;28;20050;-96
2022/10/04 05:58:55;;;;;;;0.10;0.10;;;;;;;;;;4959000;28;20078;-96
2022/10/04 06:01:40;;;;;;;0.10;0.10;;;;;;;;;;4942616;28;20085;-96
2022/10/04 06:04:09;;;;;;;0.20;0.20;;;;;;;;;;4957549;28;20477;-95
2022/10/04 06:06:39;;;;;;;0.17;0.17;;;;;;;;;;4958168;28;20588;-95
2022/10/04 06:09:26;;;;;;;0.10;0.10;;;;;;;;;;4943642;28;20146;-96
2022/10/04 06:12:02;;;;;;;0.10;0.10;;;;;;;;;;4958925;28;20490;-94
2022/10/04 06:14:34;;;;;;;0.10;0.10;;;;;;;;;;4958489;28;20069;-93
2022/10/04 06:17:00;;;;;;;0.10;0.10;;;;;;;;;;4941163;28;20075;-93
2022/10/04 06:19:48;;;;;;;0.10;0.10;;;;;;;;;;4957670;28;20142;-94
2022/10/04 06:22:17;;;;;;;0.10;0.10;;;;;;;;;;4957677;28;20039;-96
2022/10/04 06:25:18;;;;;;;0.10;0.10;;;;;;;;;;4958938;28;20078;-96
2022/10/04 06:28:07;;;;;;;0.10;0.10;;;;;;;;;;4976087;28;20047;-94
2022/10/04 06:30:47;;;;;;;0.10;0.10;;;;;;;;;;4961085;28;20406;-94
2022/10/04 06:33:31;;;;;;;0.10;0.10;;;;;;;;;;4945296;28;20505;-93
2022/10/04 06:36:18;;;;;;;0.10;0.10;;;;;;;;;;4944290;28;20055;-94
2022/10/04 06:39:02;;;;;;;0.20;0.20;;;;;;;;;;4941077;28;20047;-94
2022/10/04 06:41:49;;;;;;;0.10;0.10;;;;;;;;;;4960785;28;20047;-93
2022/10/04 06:44:30;;;;;;;0.20;0.20;;;;;;;;;;4960025;28;20121;-94
2022/10/04 06:47:26;;;;;;;0.10;0.10;;;;;;;;;;4960382;28;20047;-95
2022/10/04 06:50:11;;;;;;;0.10;0.10;;;;;;;;;;4952405;28;20073;-94
2022/10/04 06:53:03;;;;;;;0.10;0.10;;;;;;;;;;4960566;28;20051;-94
2022/10/04 06:55:50;;;;;;;0.10;0.10;;;;;;;;;;4960214;28;20050;-93
2022/10/04 06:58:38;;;;;;;0.10;0.10;;;;;;;;;;4962546;28;20106;-93
2022/10/04 07:01:24;;;;;;;0.10;0.10;;;;;;;;;;4943914;28;20043;-92
2022/10/04 07:03:53;;;;;;;0.52;0.52;;;;;;;;;;4959760;28;20130;-91
2022/10/04 07:06:27;;;;;;;0.10;0.10;;;;;;;;;;4959680;28;20046;-91
2022/10/04 07:08:58;;;;;;;0.20;0.20;;;;;;;;;;4943317;28;20050;-92
2022/10/04 07:11:25;;;;;;;0.20;0.20;;;;;;;;;;4943965;28;20097;-92
2022/10/04 07:14:04;;;;;;;0.20;0.20;;;;;;;;;;4943692;28;20042;-93
2022/10/04 07:16:45;;;;;;;0.20;0.20;;;;;;;;;;4959837;28;20039;-93
2022/10/04 07:19:22;;;;;;;0.20;0.20;;;;;;;;;;4959266;28;20047;-93
2022/10/04 07:22:11;;;;;;;0.10;0.10;;;;;;;;;;4944373;28;20042;-94
2022/10/04 07:24:59;;;;;;;0.10;0.10;;;;;;;;;;4959899;28;20043;-94
2022/10/04 07:27:43;;;;;;;0.10;0.10;;;;;;;;;;4960224;28;20101;-94
2022/10/04 07:30:17;;;;;;;0.10;0.10;;;;;;;;;;4960170;28;20050;-94
2022/10/04 07:33:00;;;;;;;;;;;;;;;;;;;;;
2022/10/04 07:35:35;;;;;;;0.10;0.10;;;;;;;;;;4961062;28;20059;-95
2022/10/04 07:38:16;;;;;;;0.10;0.10;;;;;;;;;;4943626;28;20106;-95
2022/10/04 07:41:02;;;;;;;0.10;0.10;;;;;;;;;;4975502;28;20051;-96
2022/10/04 07:43:43;;;;;;;0.10;0.10;;;;;;;;;;4975604;28;20129;-95
2022/10/04 07:46:43;;;;;;;0.10;0.10;;;;;;;;;;4959659;28;20042;-96
2022/10/04 07:49:13;;;;;;;0.13;0.13;;;;;;;;;;4949742;28;20106;-94
2022/10/04 07:51:58;;;;;;;0.20;0.20;;;;;;;;;;4945690;28;20049;-96
2022/10/04 07:54:41;;;;;;;0.10;0.10;;;;;;;;;;4965917;28;20043;-96
2022/10/04 07:57:21;;;;;;;0.10;0.10;;;;;;;;;;4963906;28;20101;-95
2022/10/04 08:00:05;;;;;;;0.10;0.10;;;;;;;;;;4960150;28;20095;-91
2022/10/04 08:02:37;;;;;;;0.10;0.10;;;;;;;;;;4942962;28;20395;-92
2022/10/04 08:05:17;;;;;;;0.15;0.15;;;;;;;;;;4942619;28;20184;-92
2022/10/04 08:08:01;;;;;;;0.20;0.20;;;;;;;;;;4942143;28;20426;-90
2022/10/04 08:10:34;;;;;;;0.10;0.10;;;;;;;;;;4957812;28;20074;-90
2022/10/04 08:13:06;;;;;;;0.10;0.10;;;;;;;;;;4942527;28;20047;-91
2022/10/04 08:15:34;;;;;;;0.10;0.10;;;;;;;;;;4968588;28;20137;-93
2022/10/04 08:18:20;;;;;;;0.10;0.10;;;;;;;;;;4974382;28;20469;-93
2022/10/04 08:20:46;;;;;;;0.13;0.13;;;;;;;;;;4957879;28;20039;-93
2022/10/04 08:23:19;;;;;;;0.10;0.10;;;;;;;;;;4958462;28;20498;-93
2022/10/04 08:25:51;;;;;;;0.10;0.10;;;;;;;;;;4957966;28;20039;-93
2022/10/04 08:31:43;;;;;;;0.10;0.10;;;;;;;;;;4960707;28;20043;-93
2022/10/04 08:34:15;;;;;;;0.20;0.20;;;;;;;;;;4958221;28;20461;-93
2022/10/04 08:36:47;;;;;;;0.10;0.10;;;;;;;;;;4941945;28;20141;-92
2022/10/04 08:39:33;;;;;;;0.10;0.10;;;;;;;;;;4957693;28;20302;-94
2022/10/04 08:42:10;;;;;;;0.10;0.10;;;;;;;;;;4941851;28;20458;-93
2022/10/04 08:44:42;;;;;;;0.20;0.20;;;;;;;;;;4941513;28;20062;-93
2022/10/04 08:47:29;;;;;;;0.10;0.10;;;;;;;;;;4941546;28;20079;-93
2022/10/04 08:49:58;;;;;;;0.10;0.10;;;;;;;;;;4940783;28;20057;-90
2022/10/04 08:52:43;;;;;;;0.10;0.10;;;;;;;;;;4957337;28;20053;-91
2022/10/04 08:55:12;;;;;;;0.25;0.25;;;;;;;;;;4957244;28;20042;-93
2022/10/04 08:57:38;;;;;;;0.10;0.10;;;;;;;;;;4957429;28;20043;-92
2022/10/04 09:00:18;;;;;;;0.10;0.10;;;;;;;;;;4957423;28;20049;-93
2022/10/04 09:02:47;;;;;;;0.10;0.10;;;;;;;;;;4957462;28;20051;-93
2022/10/04 09:05:22;;;;;;;0.10;0.10;;;;;;;;;;4973525;28;20471;-93
2022/10/04 09:07:51;;;;;;;0.20;0.20;;;;;;;;;;4973278;28;20045;-92
2022/10/04 09:21:02;;;;;;;0.10;0.10;;;;;;;;;;5207121;23;20612;-93
2022/10/04 09:23:33;;;;;;;0.10;0.10;;;;;;;;;;4940925;28;20050;-91
2022/10/04 09:25:58;;;;;;;0.10;0.10;;;;;;;;;;4956423;28;20043;-92
2022/10/04 10:27:19;;;;;;;0.20;0.20;;;;;;;;;;5651404;23;20051;-94
2022/10/04 10:33:34;;;;;;;0.15;0.15;;;;;;;;;;5118719;23;20051;-96
2022/10/04 10:48:02;;;;;;;0.10;0.10;;;;;;;;;;5914004;23;20295;-96
2022/10/04 10:50:57;;;;;;;0.10;0.10;;;;;;;;;;4959719;28;20073;-96
2022/10/04 10:54:04;;;;;;;0.10;0.10;;;;;;;;;;4982288;28;20050;-96
2022/10/04 11:00:51;;;;;;;0.32;0.32;;;;;;;;;;4980725;28;20136;-96
2022/10/04 11:21:03;;;;;;;0.10;0.10;;;;;;;;;;6083985;23;20048;-96
2022/10/04 11:27:27;;;;;;;0.20;0.20;;;;;;;;;;5007716;28;20087;-96
2022/10/04 11:30:16;;;;;;;0.10;0.10;;;;;;;;;;4964581;28;20055;-96
2022/10/04 11:35:58;;;;;;;0.10;0.10;;;;;;;;;;5794222;23;20086;-94
2022/10/04 11:45:42;;;;;;;0.10;0.10;;;;;;;;;;5335987;23;20053;-96
2022/10/04 11:48:28;;;;;;;0.10;0.10;;;;;;;;;;5010432;28;20046;-96
2022/10/04 11:52:03;;;;;;;0.20;0.20;;;;;;;;;;5038499;28;20044;-96
2022/10/04 11:55:09;;;;;;;0.30;0.30;;;;;;;;;;4948913;29;20054;-96
2022/10/04 11:57:42;;;;;;;0.10;0.10;;;;;;;;;;4953452;29;20055;-96
2022/10/04 12:00:19;;;;;;;0.20;0.20;;;;;;;;;;4936503;29;20048;-96
2022/10/04 12:03:17;;;;;;;0.10;0.10;;;;;;;;;;4936743;29;20179;-96
2022/10/04 12:06:15;;;;;;;0.20;0.20;;;;;;;;;;4932821;29;20221;-96
2022/10/04 12:09:24;;;;;;;0.10;0.10;;;;;;;;;;4940862;29;20080;-96
2022/10/04 12:15:23;;;;;;;0.20;0.20;;;;;;;;;;4950452;29;20050;-96
2022/10/04 12:18:08;;;;;;;0.20;0.20;;;;;;;;;;4945176;28;20571;-96
2022/10/04 12:21:11;;;;;;;0.10;0.10;;;;;;;;;;5009973;28;20046;-96
2022/10/04 12:24:03;;;;;;;0.20;0.20;;;;;;;;;;4996917;28;20605;-96
2022/10/04 12:26:54;;;;;;;0.20;0.20;;;;;;;;;;5023280;28;20073;-96
2022/10/04 12:30:03;;;;;;;0.10;0.10;;;;;;;;;;4994694;28;20046;-96
2022/10/04 12:32:54;;;;;;;;;;;;;;;;;;;;;
2022/10/04 12:35:52;;;;;;;0.20;0.20;;;;;;;;;;5035152;28;20041;-96
2022/10/04 12:38:49;;;;;;;0.40;0.40;;;;;;;;;;5015313;28;20042;-96
2022/10/04 12:41:30;;;;;;;0.10;0.10;;;;;;;;;;5027422;28;20053;-96
2022/10/04 12:43:59;;;;;;;0.10;0.10;;;;;;;;;;5005639;28;20519;-96
2022/10/04 12:46:29;;;;;;;;;;;;;;;;;;5023513;28;20069;-96
2022/10/04 12:49:03;;;;;;;0.10;0.10;;;;;;;;;;4986120;28;19956;-96
2022/10/04 12:51:50;;;;;;;0.10;0.10;;;;;;;;;;4983839;28;20045;-96
2022/10/04 12:54:25;;;;;;;0.10;0.10;;;;;;;;;;4968295;28;20046;-96
2022/10/04 12:57:12;;;;;;;0.10;0.10;;;;;;;;;;4983381;28;20042;-96
2022/10/04 13:00:12;;;;;;;0.15;0.15;;;;;;;;;;5009359;28;20509;-96
2022/10/04 13:03:13;;;;;;;0.10;0.10;;;;;;;;;;5022543;28;20077;-96
2022/10/04 13:05:54;;;;;;;0.10;0.10;;;;;;;;;;4995676;28;20280;-96
2022/10/04 13:08:56;;;;;;;0.10;0.10;;;;;;;;;;5007364;28;20046;-96
2022/10/04 13:11:31;;;;;;;0.10;0.10;;;;;;;;;;4945846;29;20195;-96
2022/10/04 13:14:27;;;;;;;0.20;0.20;;;;;;;;;;4943846;28;20049;-96
2022/10/04 13:17:00;;;;;;;0.10;0.10;;;;;;;;;;4987913;28;20054;-96
2022/10/04 13:19:51;;;;;;;0.10;0.10;;;;;;;;;;4974567;28;20041;-96
2022/10/04 13:22:18;;;;;;;0.10;0.10;;;;;;;;;;4991394;28;20485;-96
2022/10/04 13:31:43;;;;;;;0.43;0.17;;;;;;;;;;5012981;28;20052;-96
2022/10/04 13:34:41;;;;;;;0.20;0.20;;;;;;;;;;5023780;28;20042;-96
2022/10/04 13:37:16;;;;;;;0.20;0.20;;;;;;;;;;4982853;28;20038;-96
2022/10/04 13:40:01;;;;;;;1.38;1.27;;;;;;;;;;4984292;28;20107;-96
2022/10/04 13:42:33;;;;;;;0.10;0.10;;;;;;;;;;4980850;28;20034;-96
2022/10/04 13:45:12;;;;;;;0.20;0.20;;;;;;;;;;4980380;28;20124;-91
2022/10/04 13:47:44;;;;;;;0.10;0.10;;;;;;;;;;4963562;28;20046;-88
2022/10/04 13:50:29;;;;;;;0.20;0.20;;;;;;;;;;4963091;28;20076;-87
2022/10/04 13:58:52;;;;;;;0.15;0.15;;;;;;;;;;4995241;28;20132;-89
2022/10/04 14:01:18;;;;;;;0.10;0.10;;;;;;;;;;4979196;28;20120;-93
2022/10/04 14:03:49;;;;;;;0.10;0.10;;;;;;;;;;4979002;28;20069;-91
2022/10/04 14:06:18;;;;;;;0.10;0.10;;;;;;;;;;4963062;28;20315;-92
2022/10/04 14:08:45;;;;;;;0.15;0.15;;;;;;;;;;4979348;28;20053;-92
2022/10/04 14:11:12;;;;;;;0.10;0.10;;;;;;;;;;4979341;28;20076;-92
2022/10/04 14:13:50;;;;;;;0.10;0.10;;;;;;;;;;4979222;28;20041;-93
2022/10/04 14:16:25;;;;;;;0.10;0.10;;;;;;;;;;4979181;28;20081;-93
2022/10/04 14:19:10;;;;;;;0.10;0.10;;;;;;;;;;4979336;28;20041;-89
2022/10/04 14:21:46;;;;;;;0.20;0.20;;;;;;;;;;4995765;28;20045;-92
2022/10/04 14:24:32;;;;;;;0.10;0.10;;;;;;;;;;4979549;28;20097;-93
2022/10/04 14:27:19;;;;;;;0.10;0.10;;;;;;;;;;5003650;28;20097;-92
2022/10/04 14:29:51;;;;;;;0.20;0.20;;;;;;;;;;5003269;28;20060;-92
2022/10/04 14:32:19;;;;;;;;;;;;;;;;;;4986755;28;20038;-92
2022/10/04 14:35:03;;;;;;;0.10;0.10;;;;;;;;;;5003019;28;19916;-92
2022/10/04 14:37:38;;;;;;;0.90;0.68;;;;;;;;;;5019636;28;20065;-93
2022/10/04 14:40:08;;;;;;;0.10;0.10;;;;;;;;;;5003142;28;20033;-90
2022/10/04 14:42:37;;;;;;;0.10;0.10;;;;;;;;;;4986418;28;20061;-92
2022/10/04 14:45:10;;;;;;;0.10;0.10;;;;;;;;;;5021128;28;20033;-90
2022/10/04 14:47:55;;;;;;;0.10;0.10;;;;;;;;;;5026277;28;20054;-91
2022/10/04 14:50:28;;;;;;;0.10;0.10;;;;;;;;;;5015113;28;20045;-93
2022/10/04 14:52:54;;;;;;;;;;;;;;;;;;5002693;28;20041;-92
2022/10/04 14:55:21;;;;;;;0.10;0.10;;;;;;;;;;5001882;28;19960;-91
2022/10/04 14:58:06;;;;;;;0.10;0.10;;;;;;;;;;5001977;28;20045;-94
2022/10/04 15:00:48;;;;;;;0.30;0.30;;;;;;;;;;5002410;28;20048;-94
2022/10/04 15:03:19;;;;;;;0.10;0.10;;;;;;;;;;5001613;28;20179;-91
2022/10/04 15:05:56;;;;;;;0.10;0.10;;;;;;;;;;4985417;28;20042;-93
2022/10/04 15:08:25;;;;;;;0.10;0.10;;;;;;;;;;5001548;28;20037;-92
2022/10/04 15:10:52;;;;;;;0.10;0.10;;;;;;;;;;5017932;28;20045;-94
2022/10/04 15:13:20;;;;;;;0.10;0.10;;;;;;;;;;4985309;28;20060;-93
2022/10/04 15:15:46;;;;;;;0.10;0.10;;;;;;;;;;4986106;28;20045;-93
2022/10/04 15:18:26;;;;;;;0.10;0.10;;;;;;;;;;5001292;28;20046;-93
2022/10/04 15:20:57;;;;;;;0.10;0.10;;;;;;;;;;4985575;28;20073;-89
2022/10/04 15:23:30;;;;;;;0.10;0.10;;;;;;;;;;4987390;28;20043;-90
2022/10/04 15:25:59;;;;;;;0.10;0.10;;;;;;;;;;5005959;28;20088;-91
2022/10/04 15:28:25;;;;;;;0.10;0.10;;;;;;;;;;4991260;28;20037;-92
2022/10/04 15:30:53;;;;;;;0.10;0.10;;;;;;;;;;5018435;28;20048;-92
2022/10/04 15:33:26;;;;;;;0.10;0.10;;;;;;;;;;5004205;28;20037;-94
2022/10/04 15:36:02;;;;;;;0.10;0.10;;;;;;;;;;4987154;28;20044;-91
2022/10/04 15:38:34;;;;;;;0.10;0.10;;;;;;;;;;5001274;28;20225;-89
2022/10/04 15:41:06;;;;;;;0.10;0.10;;;;;;;;;;5000658;28;20036;-92
2022/10/04 15:43:42;;;;;;;0.10;0.10;;;;;;;;;;5001399;28;20492;-90
2022/10/04 15:46:27;;;;;;;0.13;0.13;;;;;;;;;;5000585;28;20068;-89
2022/10/04 15:49:20;;;;;;;0.10;0.10;;;;;;;;;;5000162;28;20095;-92
2022/10/04 15:52:06;;;;;;;0.10;0.10;;;;;;;;;;4992709;28;20089;-89
2022/10/04 15:54:41;;;;;;;0.10;0.10;;;;;;;;;;5016603;28;20099;-88
2022/10/04 15:57:29;;;;;;;0.10;0.10;;;;;;;;;;5000608;28;20046;-88
2022/10/04 16:00:14;;;;;;;0.30;0.30;;;;;;;;;;4999850;28;20045;-88
2022/10/04 16:02:47;;;;;;;0.10;0.10;;;;;;;;;;5000292;28;20041;-88
2022/10/04 16:05:36;;;;;;;0.10;0.10;;;;;;;;;;4984212;28;20038;-87
2022/10/04 16:08:21;;;;;;;0.20;0.20;;;;;;;;;;5016522;28;20089;-88
2022/10/04 16:11:05;;;;;;;0.10;0.10;;;;;;;;;;5016311;28;20055;-88
2022/10/04 16:13:32;;;;;;;0.10;0.10;;;;;;;;;;5016917;28;20045;-87
2022/10/04 16:16:18;;;;;;;0.10;0.10;;;;;;;;;;5000048;28;20041;-92
2022/10/04 16:18:44;;;;;;;0.10;0.10;;;;;;;;;;5000362;28;20044;-92
2022/10/04 16:21:25;;;;;;;0.10;0.10;;;;;;;;;;5000415;28;20033;-91
2022/10/04 16:24:13;;;;;;;0.10;0.10;;;;;;;;;;5016517;28;20033;-91
2022/10/04 16:26:51;;;;;;;0.10;0.10;;;;;;;;;;5000172;28;20042;-91
2022/10/04 16:29:23;;;;;;;0.10;0.10;;;;;;;;;;5000169;28;20041;-91
2022/10/04 16:32:10;;;;;;;0.10;0.10;;;;;;;;;;5000287;28;20041;-92
2022/10/04 16:34:41;;;;;;;0.10;0.10;;;;;;;;;;4984221;28;20508;-93
2022/10/04 16:37:26;;;;;;;0.10;0.10;;;;;;;;;;4984542;28;20045;-92
2022/10/04 16:40:04;;;;;;;0.10;0.10;;;;;;;;;;5000319;28;20130;-91
2022/10/04 16:42:49;;;;;;;0.10;0.10;;;;;;;;;;4985780;28;20037;-92
2022/10/04 16:45:34;;;;;;;0.10;0.10;;;;;;;;;;5000067;28;20056;-92
2022/10/04 16:48:02;;;;;;;0.10;0.10;;;;;;;;;;5000087;28;20044;-92
2022/10/04 16:50:47;;;;;;;0.10;0.10;;;;;;;;;;4983852;28;20180;-90
2022/10/04 16:53:20;;;;;;;0.10;0.10;;;;;;;;;;4999657;28;20045;-91
2022/10/04 16:55:54;;;;;;;0.10;0.10;;;;;;;;;;4984044;28;20060;-92
2022/10/04 16:58:26;;;;;;;0.28;0.28;;;;;;;;;;4999760;28;20496;-92
2022/10/04 17:01:11;;;;;;;0.13;0.13;;;;;;;;;;5016119;28;20447;-91
2022/10/04 17:03:37;;;;;;;0.10;0.10;;;;;;;;;;4999427;28;20064;-91
2022/10/04 17:06:13;;;;;;;0.10;0.10;;;;;;;;;;4983157;28;20029;-90
2022/10/04 17:09:05;;;;;;;0.10;0.10;;;;;;;;;;4983177;28;20041;-91
2022/10/04 17:11:35;;;;;;;0.10;0.10;;;;;;;;;;4990367;28;20056;-91
2022/10/04 17:14:05;;;;;;;0.25;0.20;;;;;;;;;;4999252;28;20449;-90
2022/10/04 17:16:36;;;;;;;0.10;0.10;;;;;;;;;;4982814;28;20048;-89
2022/10/04 17:19:02;;;;;;;0.10;0.10;;;;;;;;;;4982753;28;20071;-90
2022/10/04 17:21:47;;;;;;;0.10;0.10;;;;;;;;;;4998819;28;20056;-90
2022/10/04 17:24:18;;;;;;;0.10;0.10;;;;;;;;;;4999277;28;20041;-91
2022/10/04 17:26:54;;;;;;;0.20;0.20;;;;;;;;;;4999086;28;20433;-95
2022/10/04 17:29:36;;;;;;;0.10;0.10;;;;;;;;;;4984038;28;20384;-94
2022/10/04 17:32:04;;;;;;;0.10;0.10;;;;;;;;;;5016253;28;20041;-93
2022/10/04 17:34:42;;;;;;;0.10;0.10;;;;;;;;;;4983623;28;20096;-94
2022/10/04 17:37:19;;;;;;;0.10;0.10;;;;;;;;;;4982955;28;20041;-94
2022/10/04 17:40:01;;;;;;;0.10;0.10;;;;;;;;;;4999961;28;20047;-94
2022/10/04 17:42:40;;;;;;;0.20;0.20;;;;;;;;;;4999523;28;20488;-94
2022/10/04 17:45:37;;;;;;;0.10;0.10;;;;;;;;;;4996499;28;20057;-94
2022/10/04 17:57:04;;;;;;;0.10;0.10;;;;;;;;;;4998295;28;20501;-94
2022/10/04 17:59:40;;;;;;;0.10;0.10;;;;;;;;;;4994910;28;20135;-92
2022/10/04 18:02:16;;;;;;;0.10;0.10;;;;;;;;;;4995366;28;20069;-93
2022/10/04 18:04:47;;;;;;;0.10;0.10;;;;;;;;;;4995620;28;20034;-93
2022/10/04 18:07:17;;;;;;;0.10;0.10;;;;;;;;;;4979274;28;20128;-93